createdAt,value
2018-08-27T00:00:11.937Z,4.30
2018-08-27T00:02:40.653Z,4.60
2018-08-27T00:05:09.368Z,3.70
2018-08-27T00:07:38.063Z,2.97
2018-08-27T00:10:06.992Z,2.87
2018-08-27T00:12:35.675Z,1.70
2018-08-27T00:15:04.330Z,4.77
2018-08-27T00:17:33.345Z,2.27
2018-08-27T00:20:02.021Z,4.03
2018-08-27T00:22:30.723Z,5.53
2018-08-27T00:25:00.105Z,3.87
2018-08-27T00:27:29.986Z,3.37
2018-08-27T00:29:59.859Z,3.80
2018-08-27T00:32:28.517Z,3.80
2018-08-27T00:34:57.313Z,4.10
2018-08-27T00:37:26.108Z,4.90
2018-08-27T00:39:54.943Z,5.17
2018-08-27T00:42:23.838Z,3.30
2018-08-27T00:44:52.654Z,3.33
2018-08-27T00:47:21.990Z,4.50
2018-08-27T00:49:50.625Z,5.07
2018-08-27T00:52:19.342Z,3.50
2018-08-27T00:54:48.115Z,4.23
2018-08-27T00:57:16.850Z,4.50
2018-08-27T00:59:45.527Z,3.13
2018-08-27T01:02:15.383Z,3.47
2018-08-27T01:04:44.195Z,3.33
2018-08-27T01:07:12.872Z,3.90
2018-08-27T01:09:41.908Z,4.20
2018-08-27T01:12:10.721Z,3.90
2018-08-27T01:14:39.379Z,5.93
2018-08-27T01:17:08.155Z,4.70
2018-08-27T01:19:36.735Z,4.37
2018-08-27T01:22:05.504Z,4.67
2018-08-27T01:24:34.283Z,3.70
2018-08-27T01:27:03.055Z,2.53
2018-08-27T01:29:31.830Z,3.73
2018-08-27T01:32:06.126Z,5.03
2018-08-27T01:34:34.881Z,5.10
2018-08-27T01:37:03.660Z,6.63
2018-08-27T01:39:32.472Z,5.27
2018-08-27T01:42:01.129Z,2.70
2018-08-27T01:44:29.944Z,2.30
2018-08-27T01:46:58.938Z,6.90
2018-08-27T01:49:27.833Z,4.53
2018-08-27T01:51:56.446Z,4.70
2018-08-27T01:54:25.454Z,4.23
2018-08-27T01:56:54.460Z,5.20
2018-08-27T01:59:23.335Z,4.90
2018-08-27T02:01:52.350Z,3.77
2018-08-27T02:04:21.278Z,5.10
2018-08-27T02:06:55.801Z,4.00
2018-08-27T02:09:25.438Z,6.63
2018-08-27T02:11:56.192Z,6.00
2018-08-27T02:14:25.169Z,6.93
2018-08-27T02:16:54.142Z,3.90
2018-08-27T02:19:22.998Z,9.90
2018-08-27T02:21:51.853Z,5.30
2018-08-27T02:24:20.689Z,7.63
2018-08-27T02:26:49.864Z,4.00
2018-08-27T02:29:18.639Z,4.50
2018-08-27T02:31:47.595Z,6.10
2018-08-27T02:34:22.950Z,6.70
2018-08-27T02:36:51.845Z,3.73
2018-08-27T02:39:20.919Z,4.17
2018-08-27T02:41:49.536Z,8.40
2018-08-27T02:44:18.894Z,5.73
2018-08-27T02:46:47.567Z,6.73
2018-08-27T02:49:16.602Z,4.13
2018-08-27T02:51:45.191Z,3.83
2018-08-27T02:54:14.278Z,4.63
2018-08-27T02:56:43.368Z,6.40
2018-08-27T02:59:12.328Z,6.10
2018-08-27T03:01:41.159Z,5.43
2018-08-27T03:04:16.054Z,3.87
2018-08-27T03:06:44.808Z,3.67
2018-08-27T03:09:13.343Z,6.70
2018-08-27T03:11:42.050Z,8.13
2018-08-27T03:14:10.754Z,4.43
2018-08-27T03:16:39.514Z,3.67
2018-08-27T03:19:08.223Z,5.17
2018-08-27T03:21:37.020Z,5.27
2018-08-27T03:24:05.844Z,5.83
2018-08-27T03:26:34.570Z,4.60
2018-08-27T03:29:03.445Z,5.07
2018-08-27T03:31:32.321Z,5.20
2018-08-27T03:34:01.717Z,6.40
2018-08-27T03:36:30.532Z,7.33
2018-08-27T03:38:59.308Z,5.93
2018-08-27T03:41:28.022Z,5.93
2018-08-27T03:43:56.698Z,9.73
2018-08-27T03:46:25.573Z,4.93
2018-08-27T03:48:54.313Z,4.23
2018-08-27T03:51:23.045Z,5.93
2018-08-27T03:53:51.784Z,4.93
2018-08-27T03:56:20.695Z,10.33
2018-08-27T03:58:49.369Z,5.57
2018-08-27T04:01:18.145Z,6.10
2018-08-27T04:03:47.220Z,7.47
2018-08-27T04:06:16.216Z,6.40
2018-08-27T04:08:44.956Z,6.20
2018-08-27T04:11:14.466Z,6.83
2018-08-27T04:13:43.210Z,8.33
2018-08-27T04:16:11.876Z,5.90
2018-08-27T04:18:40.592Z,6.83
2018-08-27T04:21:09.508Z,6.97
2018-08-27T04:23:38.535Z,8.17
2018-08-27T04:26:07.518Z,8.10
2018-08-27T04:28:36.396Z,7.20
2018-08-27T04:31:05.298Z,9.10
2018-08-27T04:33:34.065Z,6.90
2018-08-27T04:36:02.859Z,6.77
2018-08-27T04:38:31.654Z,7.73
2018-08-27T04:41:01.423Z,7.70
2018-08-27T04:43:30.905Z,6.50
2018-08-27T04:46:01.559Z,8.13
2018-08-27T04:48:30.728Z,8.93
2018-08-27T04:51:03.933Z,5.17
2018-08-27T04:56:15.521Z,7.93
2018-08-27T04:58:46.457Z,7.20
2018-08-27T05:01:20.831Z,6.47
2018-08-27T05:03:51.768Z,8.83
2018-08-27T05:06:20.940Z,8.87
2018-08-27T05:08:49.515Z,7.20
2018-08-27T05:11:18.051Z,8.50
2018-08-27T05:13:46.765Z,6.67
2018-08-27T05:16:15.440Z,11.20
2018-08-27T05:18:44.215Z,7.40
2018-08-27T05:21:12.876Z,10.33
2018-08-27T05:23:41.465Z,8.03
2018-08-27T05:26:10.126Z,7.20
2018-08-27T05:28:38.892Z,6.43
2018-08-27T05:31:07.526Z,5.40
2018-08-27T05:33:36.127Z,7.73
2018-08-27T05:36:04.760Z,8.10
2018-08-27T05:38:33.483Z,8.47
2018-08-27T05:41:02.081Z,6.07
2018-08-27T05:43:30.764Z,10.83
2018-08-27T05:45:59.431Z,10.43
2018-08-27T05:48:28.178Z,8.97
2018-08-27T05:50:56.890Z,9.47
2018-08-27T05:53:25.505Z,7.70
2018-08-27T05:55:54.212Z,5.67
2018-08-27T05:58:22.832Z,5.53
2018-08-27T06:00:51.430Z,6.17
2018-08-27T06:03:20.145Z,6.77
2018-08-27T06:05:48.663Z,10.57
2018-08-27T06:08:18.196Z,4.63
2018-08-27T06:10:47.090Z,4.07
2018-08-27T06:13:15.945Z,5.40
2018-08-27T06:15:44.644Z,5.90
2018-08-27T06:18:13.316Z,3.83
2018-08-27T06:20:41.971Z,5.10
2018-08-27T06:23:10.665Z,2.90
2018-08-27T06:25:39.262Z,3.93
2018-08-27T06:28:08.057Z,5.80
2018-08-27T06:30:36.856Z,3.80
2018-08-27T06:33:05.858Z,5.70
2018-08-27T06:35:38.760Z,5.23
2018-08-27T06:38:07.708Z,2.57
2018-08-27T06:40:36.335Z,5.60
2018-08-27T06:43:05.024Z,4.23
2018-08-27T06:45:33.987Z,3.00
2018-08-27T06:48:02.637Z,2.97
2018-08-27T06:50:31.254Z,4.40
2018-08-27T06:52:59.925Z,5.80
2018-08-27T06:55:28.600Z,4.97
2018-08-27T06:57:57.196Z,5.43
2018-08-27T07:00:25.850Z,4.27
2018-08-27T07:02:54.531Z,4.17
2018-08-27T07:05:23.620Z,3.07
2018-08-27T07:07:52.941Z,3.83
2018-08-27T07:10:21.871Z,3.60
2018-08-27T07:12:50.604Z,4.70
2018-08-27T07:15:19.200Z,3.00
2018-08-27T07:17:48.016Z,4.57
2018-08-27T07:20:16.693Z,4.53
2018-08-27T07:22:45.328Z,2.77
2018-08-27T07:25:14.340Z,2.30
2018-08-27T07:27:43.035Z,2.80
2018-08-27T07:30:11.871Z,2.13
2018-08-27T07:32:40.492Z,4.07
2018-08-27T07:35:09.121Z,2.87
2018-08-27T07:37:38.095Z,4.33
2018-08-27T07:40:07.370Z,5.73
2018-08-27T07:42:38.875Z,2.07
2018-08-27T07:45:08.640Z,3.30
2018-08-27T07:47:44.415Z,3.20
2018-08-27T07:50:13.230Z,2.70
2018-08-27T07:52:41.922Z,5.03
2018-08-27T07:55:10.701Z,4.53
2018-08-27T07:57:39.704Z,3.20
2018-08-27T08:00:08.911Z,4.90
2018-08-27T08:02:37.683Z,3.50
2018-08-27T08:05:07.180Z,3.43
2018-08-27T08:07:36.283Z,2.80
2018-08-27T08:10:06.434Z,3.77
2018-08-27T08:12:35.286Z,3.33
2018-08-27T08:15:04.380Z,7.40
2018-08-27T08:17:33.355Z,3.13
2018-08-27T08:20:02.402Z,3.33
2018-08-27T08:22:32.391Z,2.53
2018-08-27T08:27:29.956Z,4.40
2018-08-27T08:32:26.709Z,4.10
2018-08-27T08:34:56.200Z,4.33
2018-08-27T08:37:24.856Z,4.57
2018-08-27T08:47:19.156Z,2.43
2018-08-27T08:49:48.411Z,3.70
2018-08-27T09:29:19.335Z,6.65
2018-08-27T09:44:08.505Z,6.90
2018-08-27T10:28:41.665Z,9.77
2018-08-27T10:31:10.375Z,6.50
2018-08-27T10:33:38.850Z,8.20
2018-08-27T10:36:08.203Z,8.53
2018-08-27T10:38:37.301Z,9.40
2018-08-27T10:43:34.389Z,11.10
2018-08-27T10:46:03.821Z,11.20
2018-08-27T10:48:32.485Z,9.50
2018-08-27T11:00:54.836Z,8.70
2018-08-27T11:03:26.231Z,7.83
2018-08-27T11:10:51.717Z,6.55
2018-08-27T11:13:20.446Z,7.15
2018-08-27T11:20:46.630Z,6.00
2018-08-27T11:23:15.454Z,9.40
2018-08-27T11:25:43.928Z,6.15
2018-08-27T11:38:06.065Z,7.05
2018-08-27T11:40:35.792Z,10.40
2018-08-27T11:48:05.167Z,6.40
2018-08-27T11:50:35.085Z,6.20
2018-08-27T11:53:03.959Z,7.20
2018-08-27T11:55:32.673Z,9.60
2018-08-27T11:58:01.408Z,8.90
2018-08-27T12:00:36.645Z,7.40
2018-08-27T12:03:05.378Z,6.07
2018-08-27T12:05:37.218Z,7.20
2018-08-27T12:08:05.989Z,7.87
2018-08-27T12:10:34.624Z,5.83
2018-08-27T12:13:03.300Z,5.20
2018-08-27T12:15:31.935Z,16.70
2018-08-27T12:18:00.881Z,11.43
2018-08-27T12:20:29.686Z,9.53
2018-08-27T12:22:58.342Z,9.40
2018-08-27T12:25:27.017Z,10.60
2018-08-27T12:27:55.863Z,8.07
2018-08-27T12:30:24.464Z,9.33
2018-08-27T12:32:53.102Z,10.13
2018-08-27T12:35:21.744Z,11.10
2018-08-27T12:37:50.329Z,10.33
2018-08-27T12:40:18.869Z,8.00
2018-08-27T12:42:47.481Z,6.67
2018-08-27T12:45:16.655Z,7.77
2018-08-27T12:47:45.943Z,11.53
2018-08-27T12:50:15.150Z,8.83
2018-08-27T12:52:43.622Z,10.37
2018-08-27T12:55:12.542Z,10.13
2018-08-27T12:57:41.097Z,14.57
2018-08-27T13:00:13.987Z,8.37
2018-08-27T13:02:43.140Z,12.63
2018-08-27T13:05:11.960Z,9.00
2018-08-27T13:07:41.286Z,11.67
2018-08-27T13:10:10.011Z,12.73
2018-08-27T13:12:38.595Z,8.23
2018-08-27T13:15:07.580Z,9.90
2018-08-27T13:17:36.380Z,7.03
2018-08-27T13:20:05.135Z,9.77
2018-08-27T13:22:33.678Z,17.00
2018-08-27T13:25:03.434Z,7.50
2018-08-27T13:27:33.181Z,8.97
2018-08-27T13:30:01.870Z,10.13
2018-08-27T13:32:30.694Z,7.40
2018-08-27T13:34:59.387Z,11.87
2018-08-27T13:37:28.192Z,8.47
2018-08-27T13:39:57.146Z,13.80
2018-08-27T13:42:25.714Z,12.73
2018-08-27T13:44:54.259Z,12.13
2018-08-27T13:47:24.654Z,10.03
2018-08-27T13:49:53.280Z,9.53
2018-08-27T13:52:22.079Z,10.03
2018-08-27T13:54:52.285Z,13.00
2018-08-27T13:57:20.823Z,12.40
2018-08-27T13:59:50.820Z,9.90
2018-08-27T14:02:19.475Z,8.10
2018-08-27T14:04:48.393Z,10.40
2018-08-27T14:07:17.013Z,10.30
2018-08-27T14:09:45.843Z,12.23
2018-08-27T14:12:14.542Z,8.90
2018-08-27T14:14:43.252Z,8.20
2018-08-27T14:17:11.989Z,9.43
2018-08-27T14:19:42.190Z,8.20
2018-08-27T14:22:11.039Z,11.33
2018-08-27T14:24:40.044Z,12.77
2018-08-27T14:27:08.831Z,10.90
2018-08-27T14:29:37.502Z,9.13
2018-08-27T14:32:10.000Z,11.90
2018-08-27T14:34:38.556Z,11.93
2018-08-27T14:37:07.298Z,11.13
2018-08-27T14:39:35.928Z,9.73
2018-08-27T14:42:04.963Z,16.63
2018-08-27T14:44:33.674Z,16.63
2018-08-27T14:49:32.527Z,13.33
2018-08-27T14:52:02.306Z,11.77
2018-08-27T14:54:31.167Z,9.83
2018-08-27T15:01:55.775Z,8.80
2018-08-27T15:04:24.862Z,10.80
2018-08-27T15:06:53.561Z,13.50
2018-08-27T15:09:23.090Z,8.00
2018-08-27T15:11:51.988Z,10.50
2018-08-27T15:14:20.848Z,7.70
2018-08-27T15:16:49.536Z,10.53
2018-08-27T15:19:17.994Z,13.23
2018-08-27T15:21:46.650Z,14.30
2018-08-27T15:24:21.731Z,15.83
2018-08-27T15:26:50.360Z,10.60
2018-08-27T15:29:19.056Z,11.80
2018-08-27T15:31:47.682Z,11.47
2018-08-27T15:34:16.378Z,14.23
2018-08-27T15:36:45.364Z,23.37
2018-08-27T15:39:13.897Z,13.40
2018-08-27T15:41:42.692Z,14.47
2018-08-27T15:44:11.508Z,10.97
2018-08-27T15:46:41.384Z,12.03
2018-08-27T15:49:11.018Z,9.07
2018-08-27T15:51:40.234Z,12.93
2018-08-27T15:54:09.967Z,10.43
2018-08-27T15:56:39.384Z,16.90
2018-08-27T15:59:07.988Z,9.90
2018-08-27T16:01:36.672Z,20.60
2018-08-27T16:04:05.390Z,15.97
2018-08-27T16:06:34.113Z,10.00
2018-08-27T16:09:03.860Z,13.93
2018-08-27T16:11:32.847Z,15.20
2018-08-27T16:14:01.530Z,15.90
2018-08-27T16:16:30.329Z,11.43
2018-08-27T16:18:59.082Z,9.60
2018-08-27T16:21:27.857Z,15.33
2018-08-27T16:23:56.533Z,11.50
2018-08-27T16:26:25.204Z,8.33
2018-08-27T16:28:54.362Z,13.73
2018-08-27T16:31:23.538Z,11.67
2018-08-27T16:33:52.295Z,12.97
2018-08-27T16:36:20.957Z,11.17
2018-08-27T16:38:49.547Z,14.80
2018-08-27T16:41:18.096Z,10.73
2018-08-27T16:43:46.788Z,14.10
2018-08-27T16:46:15.711Z,12.20
2018-08-27T16:48:44.345Z,13.37
2018-08-27T16:51:13.681Z,15.33
2018-08-27T16:53:42.396Z,12.30
2018-08-27T16:56:11.091Z,12.17
2018-08-27T16:58:39.788Z,11.77
2018-08-27T17:01:08.723Z,15.43
2018-08-27T17:03:37.298Z,13.27
2018-08-27T17:06:07.214Z,18.63
2018-08-27T17:08:35.954Z,11.43
2018-08-27T17:11:04.623Z,8.90
2018-08-27T17:13:33.199Z,16.27
2018-08-27T17:16:02.154Z,14.93
2018-08-27T17:18:30.830Z,16.30
2018-08-27T17:21:06.087Z,16.87
2018-08-27T17:23:34.828Z,14.33
2018-08-27T17:26:03.555Z,11.73
2018-08-27T17:28:32.288Z,21.43
2018-08-27T17:31:01.550Z,15.20
2018-08-27T17:33:30.680Z,19.07
2018-08-27T17:35:59.477Z,15.37
2018-08-27T17:38:28.131Z,15.53
2018-08-27T17:40:56.847Z,16.77
2018-08-27T17:43:25.541Z,17.70
2018-08-27T17:45:54.377Z,16.70
2018-08-27T17:48:23.052Z,16.77
2018-08-27T17:50:52.147Z,16.20
2018-08-27T17:53:20.907Z,26.70
2018-08-27T17:55:49.853Z,20.03
2018-08-27T17:58:19.097Z,20.43
2018-08-27T18:00:47.748Z,18.13
2018-08-27T18:03:16.541Z,17.50
2018-08-27T18:05:45.158Z,17.13
2018-08-27T18:08:13.878Z,13.30
2018-08-27T18:10:42.509Z,25.10
2018-08-27T18:13:11.225Z,20.07
2018-08-27T18:15:39.884Z,20.93
2018-08-27T18:18:08.495Z,26.17
2018-08-27T18:20:39.350Z,21.03
2018-08-27T18:23:08.065Z,18.60
2018-08-27T18:25:36.818Z,18.10
2018-08-27T18:28:05.580Z,21.53
2018-08-27T18:30:48.431Z,23.80
2018-08-27T18:33:19.260Z,17.83
2018-08-27T18:35:49.822Z,16.90
2018-08-27T18:38:18.817Z,18.73
2018-08-27T18:40:49.092Z,20.03
2018-08-27T18:43:18.949Z,18.23
2018-08-27T18:45:47.962Z,22.83
2018-08-27T18:48:16.641Z,17.23
2018-08-27T18:50:45.393Z,14.20
2018-08-27T18:53:14.057Z,20.17
2018-08-27T18:55:42.792Z,21.10
2018-08-27T18:58:11.501Z,19.70
2018-08-27T19:00:40.308Z,14.20
2018-08-27T19:03:09.131Z,16.60
2018-08-27T19:05:37.994Z,17.00
2018-08-27T19:08:06.701Z,14.00
2018-08-27T19:10:35.478Z,12.93
2018-08-27T19:13:04.153Z,14.63
2018-08-27T19:15:32.766Z,12.73
2018-08-27T19:18:01.483Z,16.17
2018-08-27T19:20:30.233Z,15.60
2018-08-27T19:22:58.894Z,11.13
2018-08-27T19:25:27.588Z,11.63
2018-08-27T19:27:56.246Z,10.53
2018-08-27T19:30:24.940Z,16.43
2018-08-27T19:32:53.659Z,11.77
2018-08-27T19:35:22.270Z,14.63
2018-08-27T19:37:50.953Z,9.27
2018-08-27T19:40:19.602Z,13.60
2018-08-27T19:42:48.223Z,11.87
2018-08-27T19:45:16.913Z,14.50
2018-08-27T19:47:45.625Z,13.30
2018-08-27T19:50:14.824Z,12.67
2018-08-27T19:52:43.458Z,11.20
2018-08-27T19:55:12.296Z,11.73
2018-08-27T19:57:41.107Z,10.40
2018-08-27T20:00:09.806Z,13.03
2018-08-27T20:02:38.898Z,9.93
2018-08-27T20:05:07.577Z,11.77
2018-08-27T20:07:36.833Z,18.30
2018-08-27T20:10:05.810Z,8.77
2018-08-27T20:12:34.483Z,9.77
2018-08-27T20:15:03.180Z,12.60
2018-08-27T20:17:31.754Z,10.00
2018-08-27T20:20:00.411Z,14.23
2018-08-27T20:22:29.120Z,9.13
2018-08-27T20:24:57.814Z,12.70
2018-08-27T20:27:26.537Z,9.27
2018-08-27T20:29:55.213Z,9.50
2018-08-27T20:32:23.887Z,9.37
2018-08-27T20:34:52.544Z,7.87
2018-08-27T20:37:21.298Z,15.17
2018-08-27T20:39:49.993Z,8.03
2018-08-27T20:42:18.708Z,9.43
2018-08-27T20:44:47.445Z,11.10
2018-08-27T20:47:16.104Z,12.10
2018-08-27T20:49:44.797Z,8.77
2018-08-27T20:52:13.590Z,13.43
2018-08-27T20:54:42.288Z,12.73
2018-08-27T20:57:11.063Z,9.97
2018-08-27T20:59:39.806Z,14.77
2018-08-27T21:02:08.513Z,6.73
2018-08-27T21:04:37.306Z,9.53
2018-08-27T21:07:06.044Z,8.83
2018-08-27T21:09:34.684Z,9.57
2018-08-27T21:12:03.516Z,10.30
2018-08-27T21:14:41.490Z,9.90
2018-08-27T21:17:10.146Z,11.37
2018-08-27T21:19:38.919Z,11.33
2018-08-27T21:22:07.577Z,9.93
2018-08-27T21:24:36.273Z,8.00
2018-08-27T21:27:05.132Z,10.60
2018-08-27T21:29:33.816Z,7.53
2018-08-27T21:32:02.484Z,10.40
2018-08-27T21:34:31.215Z,9.00
2018-08-27T21:36:59.909Z,6.63
2018-08-27T21:39:28.538Z,7.47
2018-08-27T21:41:57.261Z,9.07
2018-08-27T21:44:25.977Z,8.53
2018-08-27T21:46:54.692Z,10.73
2018-08-27T21:49:29.227Z,11.93
2018-08-27T21:51:57.902Z,9.93
2018-08-27T21:54:26.698Z,10.27
2018-08-27T21:56:55.732Z,8.37
2018-08-27T21:59:24.750Z,12.83
2018-08-27T22:01:53.389Z,9.10
2018-08-27T22:04:22.059Z,10.17
2018-08-27T22:06:50.651Z,9.17
2018-08-27T22:09:19.690Z,10.67
2018-08-27T22:11:48.357Z,12.90
2018-08-27T22:14:17.021Z,9.27
2018-08-27T22:16:45.717Z,11.77
2018-08-27T22:19:14.314Z,9.60
2018-08-27T22:21:43.128Z,8.30
2018-08-27T22:24:11.983Z,11.90
2018-08-27T22:26:40.599Z,12.57
2018-08-27T22:29:09.197Z,8.07
2018-08-27T22:31:37.910Z,11.53
2018-08-27T22:34:06.585Z,11.00
2018-08-27T22:36:35.221Z,12.13
2018-08-27T22:39:04.571Z,13.20
2018-08-27T22:41:33.232Z,11.57
2018-08-27T22:44:01.828Z,9.40
2018-08-27T22:46:30.503Z,13.50
2018-08-27T22:48:59.098Z,14.77
2018-08-27T22:51:27.693Z,14.40
2018-08-27T22:53:56.375Z,14.80
2018-08-27T22:56:24.964Z,8.97
2018-08-27T22:58:54.101Z,10.60
2018-08-27T23:01:22.719Z,11.43
2018-08-27T23:03:56.631Z,13.57
2018-08-27T23:06:25.327Z,14.90
2018-08-27T23:08:53.962Z,10.70
2018-08-27T23:11:22.577Z,13.67
2018-08-27T23:13:51.160Z,12.87
2018-08-27T23:16:25.048Z,8.53
2018-08-27T23:18:53.687Z,18.83
2018-08-27T23:21:22.382Z,13.33
2018-08-27T23:23:51.056Z,16.93
2018-08-27T23:26:19.750Z,17.00
2018-08-27T23:28:48.498Z,14.83
2018-08-27T23:31:17.181Z,12.80
2018-08-27T23:33:45.936Z,14.43
2018-08-27T23:36:14.533Z,13.40
2018-08-27T23:38:43.263Z,14.33
2018-08-27T23:41:12.183Z,11.20
2018-08-27T23:43:41.159Z,15.70
2018-08-27T23:46:09.900Z,12.63
2018-08-27T23:48:38.830Z,15.03
2018-08-27T23:51:07.546Z,18.37
2018-08-27T23:53:36.464Z,13.07
2018-08-27T23:56:05.096Z,12.50
2018-08-27T23:58:33.835Z,15.83
